Time;durP1;ratioP1;P1;durP2;ratioP2;P2;SDS_P1;SDS_P2;PMS_P1;PMS_P2;Temp;Humidity;BMP_temperature;BMP_pressure;BME280_temperature;BME280_humidity;BME280_pressure;Samples;Min_cycle;Max_cycle;Signal;HPM_P1;HPM_P2
2023/08/15 00:01:09;;;;;;;6.80;3.45;;;;;;;21.27;100.00;101139.69;5062989;28;20048;-74
2023/08/15 00:03:35;;;;;;;6.38;3.42;;;;;;;21.28;100.00;101138.66;5066936;28;20258;-74
2023/08/15 00:06:02;;;;;;;10.98;4.25;;;;;;;21.24;100.00;101132.09;5068375;28;20048;-74
2023/08/15 00:08:28;;;;;;;6.65;3.33;;;;;;;21.22;100.00;101129.63;5074271;28;20044;-74
2023/08/15 00:10:55;;;;;;;9.45;3.97;;;;;;;21.23;100.00;101130.44;5085812;28;20062;-75
2023/08/15 00:13:21;;;;;;;7.82;4.03;;;;;;;21.21;100.00;101127.16;5073739;28;20048;-74
2023/08/15 00:15:48;;;;;;;7.72;4.00;;;;;;;21.17;100.00;101121.47;5055921;28;20116;-74
2023/08/15 00:18:14;;;;;;;11.52;3.80;;;;;;;21.16;100.00;101127.81;5065618;28;20133;-74
2023/08/15 00:20:41;;;;;;;7.85;3.65;;;;;;;21.12;100.00;101121.25;5081532;28;20094;-74
2023/08/15 00:23:07;;;;;;;9.55;4.40;;;;;;;21.09;100.00;101125.16;5066315;28;20101;-75
2023/08/15 00:25:34;;;;;;;8.98;4.57;;;;;;;21.09;100.00;101119.00;5062462;28;20125;-74
2023/08/15 00:28:00;;;;;;;5.85;3.88;;;;;;;21.08;100.00;101120.84;5076227;28;20037;-74
2023/08/15 00:30:27;;;;;;;7.60;4.07;;;;;;;21.00;100.00;101114.94;5027877;28;20100;-74
2023/08/15 00:32:54;;;;;;;7.00;4.10;;;;;;;21.04;100.00;101116.16;5084128;28;20052;-74
2023/08/15 00:35:21;;;;;;;7.97;4.60;;;;;;;21.03;100.00;101107.34;5047639;28;20123;-74
2023/08/15 00:37:47;;;;;;;10.13;4.70;;;;;;;20.99;100.00;101105.28;5075235;28;20105;-74
2023/08/15 00:40:13;;;;;;;7.93;4.47;;;;;;;21.00;100.00;101115.75;5068562;28;20091;-74
2023/08/15 00:42:40;;;;;;;6.93;4.68;;;;;;;20.99;100.00;101110.63;5059196;28;20527;-74
2023/08/15 00:45:07;;;;;;;7.53;4.93;;;;;;;20.99;100.00;101108.75;5078916;28;20487;-74
2023/08/15 00:47:34;;;;;;;7.70;4.80;;;;;;;20.97;100.00;101116.16;5064754;28;20061;-73
2023/08/15 00:50:02;;;;;;;7.13;4.93;;;;;;;20.99;100.00;101119.44;5084568;28;20284;-74
2023/08/15 00:52:29;;;;;;;7.13;5.03;;;;;;;20.92;100.00;101119.44;5067986;28;20058;-74
2023/08/15 00:54:56;;;;;;;9.50;5.40;;;;;;;20.94;100.00;101111.25;5064685;28;20076;-73
2023/08/15 00:57:22;;;;;;;8.70;5.65;;;;;;;20.96;100.00;101114.53;5060853;28;20052;-74
2023/08/15 00:59:49;;;;;;;10.23;5.22;;;;;;;20.96;100.00;101103.03;5069498;28;20564;-74
2023/08/15 01:02:16;;;;;;;7.88;5.18;;;;;;;20.93;100.00;101113.09;5079755;28;20052;-73
2023/08/15 01:04:43;;;;;;;10.40;5.60;;;;;;;20.89;100.00;101100.38;5070482;28;20700;-74
2023/08/15 01:07:10;;;;;;;9.52;5.40;;;;;;;20.89;100.00;101113.72;5065889;28;20040;-74
2023/08/15 01:09:37;;;;;;;8.63;6.18;;;;;;;20.85;100.00;101115.97;5058299;28;20114;-74
2023/08/15 01:12:18;;;;;;;9.77;5.47;;;;;;;20.87;100.00;101107.75;5078836;28;20094;-74
2023/08/15 01:15:07;;;;;;;7.93;5.57;;;;;;;20.82;100.00;101107.59;5071004;28;20136;-74
2023/08/15 01:17:41;;;;;;;10.10;5.80;;;;;;;20.82;100.00;101100.41;5057225;28;20040;-74
2023/08/15 01:20:11;;;;;;;9.82;5.57;;;;;;;20.83;100.00;101098.53;5068752;28;20567;-73
2023/08/15 01:22:43;;;;;;;7.95;5.50;;;;;;;20.80;100.00;101090.97;5074175;28;20121;-74
2023/08/15 01:25:10;;;;;;;10.75;5.65;;;;;;;20.77;100.00;101097.53;5086115;28;20124;-74
2023/08/15 01:27:36;;;;;;;8.32;5.90;;;;;;;20.78;100.00;101080.50;5078551;28;20044;-73
2023/08/15 01:30:03;;;;;;;8.23;5.57;;;;;;;20.83;100.00;101093.22;5074331;28;20132;-73
2023/08/15 01:32:48;;;;;;;7.95;5.85;;;;;;;20.80;100.00;101086.47;5055484;28;20109;-74
2023/08/15 01:35:40;;;;;;;8.52;6.10;;;;;;;20.80;100.00;101077.66;5077924;28;20056;-75
2023/08/15 01:38:32;;;;;;;7.70;6.13;;;;;;;20.83;100.00;101074.56;5054193;28;20044;-73
2023/08/15 01:41:01;;;;;;;9.10;5.95;;;;;;;20.84;100.00;101081.53;5074235;28;20405;-73
2023/08/15 01:43:28;;;;;;;9.38;6.40;;;;;;;20.80;100.00;101083.78;5079327;28;20075;-73
2023/08/15 01:45:55;;;;;;;9.73;6.32;;;;;;;20.75;100.00;101086.25;5071016;28;20071;-74
2023/08/15 01:48:22;;;;;;;11.27;6.78;;;;;;;20.74;100.00;101085.44;5075031;28;20040;-74
2023/08/15 01:50:48;;;;;;;12.05;6.78;;;;;;;20.76;100.00;101093.22;5074419;28;20493;-74
2023/08/15 01:53:15;;;;;;;11.50;6.18;;;;;;;20.77;100.00;101091.38;5075430;28;20052;-74
2023/08/15 01:55:41;;;;;;;13.27;6.40;;;;;;;20.82;100.00;101089.72;5071562;28;20384;-72
2023/08/15 01:58:08;;;;;;;9.63;6.57;;;;;;;20.77;100.00;101094.84;5080122;28;20097;-73
2023/08/15 02:00:34;;;;;;;11.85;6.10;;;;;;;20.85;100.00;101107.16;5049692;28;20045;-74
2023/08/15 02:03:01;;;;;;;10.73;6.28;;;;;;;20.88;100.00;101118.22;5062497;28;20052;-74
2023/08/15 02:05:27;;;;;;;10.43;6.55;;;;;;;20.93;100.00;101120.25;5078332;28;20071;-73
2023/08/15 02:07:57;;;;;;;10.55;6.78;;;;;;;20.93;100.00;101129.09;5058139;28;20040;-73
2023/08/15 02:10:23;;;;;;;13.88;6.95;;;;;;;20.86;100.00;101124.81;5071156;28;20098;-73
2023/08/15 02:12:50;;;;;;;9.77;7.28;;;;;;;20.82;100.00;101134.25;5062334;28;20052;-73
2023/08/15 02:15:17;;;;;;;13.98;6.90;;;;;;;20.79;100.00;101129.31;5078909;28;20685;-74
2023/08/15 02:17:44;;;;;;;12.18;7.18;;;;;;;20.82;100.00;101132.38;5049346;28;20040;-74
2023/08/15 02:20:11;;;;;;;13.65;6.43;;;;;;;20.79;100.00;101139.97;5074179;28;20492;-73
2023/08/15 02:22:37;;;;;;;10.63;6.60;;;;;;;20.70;100.00;101145.53;5074913;28;20058;-74
2023/08/15 02:25:04;;;;;;;13.15;6.82;;;;;;;20.72;100.00;101140.81;5068567;28;20052;-74
2023/08/15 02:27:31;;;;;;;12.95;7.22;;;;;;;20.70;100.00;101142.03;5071259;28;20069;-73
2023/08/15 02:29:57;;;;;;;16.70;6.82;;;;;;;20.76;100.00;101149.22;5066440;28;20475;-73
2023/08/15 02:32:24;;;;;;;13.75;6.97;;;;;;;20.75;100.00;101160.88;5047975;28;20041;-74
2023/08/15 02:34:51;;;;;;;13.63;6.60;;;;;;;20.77;100.00;101169.50;5080085;28;20559;-73
2023/08/15 02:37:18;;;;;;;14.10;6.90;;;;;;;20.69;100.00;101175.03;5051520;28;20049;-73
2023/08/15 02:39:45;;;;;;;12.07;6.72;;;;;;;20.68;100.00;101171.56;5089860;28;20135;-73
2023/08/15 02:42:11;;;;;;;11.73;6.72;;;;;;;20.66;100.00;101165.63;5071061;28;20138;-73
2023/08/15 02:44:38;;;;;;;14.70;6.63;;;;;;;20.66;100.00;101162.94;5073158;28;20056;-74
2023/08/15 02:47:05;;;;;;;14.70;7.13;;;;;;;20.67;100.00;101169.91;5060945;28;20504;-73
2023/08/15 02:49:32;;;;;;;11.43;6.00;;;;;;;20.67;100.00;101161.09;5083169;28;20079;-73
2023/08/15 02:51:58;;;;;;;13.20;5.82;;;;;;;20.60;100.00;101160.25;5071636;28;20044;-74
2023/08/15 02:54:25;;;;;;;10.07;5.88;;;;;;;20.64;100.00;101164.16;5051310;28;20076;-73
2023/08/15 02:56:51;;;;;;;10.93;6.25;;;;;;;20.59;100.00;101161.28;5083054;28;20130;-72
2023/08/15 02:59:18;;;;;;;11.63;5.90;;;;;;;20.53;100.00;101169.06;5070604;28;20068;-73
2023/08/15 03:01:46;;;;;;;9.18;5.82;;;;;;;20.48;100.00;101160.88;5065058;28;20069;-73
2023/08/15 03:04:12;;;;;;;12.32;6.07;;;;;;;20.46;100.00;101168.22;5072915;28;20053;-74
2023/08/15 03:06:39;;;;;;;12.30;6.20;;;;;;;20.50;100.00;101165.97;5080406;28;20051;-73
2023/08/15 03:09:05;;;;;;;10.60;5.55;;;;;;;20.45;100.00;101171.09;5076943;28;20048;-73
2023/08/15 03:11:32;;;;;;;11.32;5.85;;;;;;;20.44;100.00;101164.94;5056421;28;20041;-73
2023/08/15 03:13:58;;;;;;;12.57;5.95;;;;;;;20.45;100.00;101163.91;5061408;28;20048;-73
2023/08/15 03:16:27;;;;;;;13.70;6.25;;;;;;;20.44;100.00;101164.94;5062558;28;20571;-74
2023/08/15 03:18:53;;;;;;;11.57;5.72;;;;;;;20.42;100.00;101166.97;5076268;28;20128;-73
2023/08/15 03:21:20;;;;;;;12.73;5.57;;;;;;;20.30;100.00;101165.94;5067961;28;20114;-73
2023/08/15 03:23:46;;;;;;;10.20;5.90;;;;;;;20.29;100.00;101167.78;5060531;28;20094;-73
2023/08/15 03:26:13;;;;;;;12.15;5.78;;;;;;;20.31;100.00;101168.41;5044153;28;20463;-73
2023/08/15 03:28:39;;;;;;;12.48;5.68;;;;;;;20.33;100.00;101162.88;5071044;28;20056;-73
2023/08/15 03:31:08;;;;;;;12.38;5.90;;;;;;;20.25;100.00;101163.91;5076398;28;20105;-73
2023/08/15 03:33:36;;;;;;;12.90;5.80;;;;;;;20.20;100.00;101173.50;5074834;28;20084;-73
2023/08/15 03:36:03;;;;;;;15.48;5.47;;;;;;;20.14;100.00;101178.59;5078240;28;20525;-73
2023/08/15 03:38:30;;;;;;;16.08;5.72;;;;;;;19.94;100.00;101180.41;5068767;28;20044;-74
2023/08/15 03:41:05;;;;;;;15.70;5.93;;;;;;;19.98;100.00;101176.31;5054506;28;20551;-73
2023/08/15 03:43:32;;;;;;;11.57;5.32;;;;;;;19.91;100.00;101175.47;5062706;28;20135;-73
2023/08/15 03:46:00;;;;;;;11.18;5.35;;;;;;;19.86;100.00;101173.41;5070230;28;20089;-73
2023/08/15 03:48:30;;;;;;;11.95;5.30;;;;;;;19.83;100.00;101180.97;5067491;28;20136;-73
2023/08/15 03:51:10;;;;;;;13.20;6.68;;;;;;;19.78;100.00;101181.56;5095911;27;20377;-67
2023/08/15 03:53:48;;;;;;;9.93;5.25;;;;;;;19.73;100.00;101176.03;5089245;28;20052;-67
2023/08/15 03:56:14;;;;;;;14.27;5.25;;;;;;;19.75;100.00;101168.66;5086487;28;20082;-67
2023/08/15 03:58:41;;;;;;;12.82;5.65;;;;;;;19.79;100.00;101169.91;5085927;28;20052;-67
2023/08/15 04:01:07;;;;;;;11.75;5.60;;;;;;;19.82;100.00;101174.03;5093089;28;20123;-67
2023/08/15 04:03:35;;;;;;;13.77;5.75;;;;;;;19.64;100.00;101171.84;5094133;27;20052;-67
2023/08/15 04:06:02;;;;;;;12.85;5.78;;;;;;;19.65;100.00;101176.97;5099077;28;20483;-67
2023/08/15 04:08:28;;;;;;;13.27;5.93;;;;;;;19.64;100.00;101177.16;5087358;27;20071;-68
2023/08/15 04:10:54;;;;;;;11.30;5.38;;;;;;;19.65;100.00;101189.47;5099432;28;20113;-67
2023/08/15 04:13:21;;;;;;;11.65;5.38;;;;;;;19.59;100.00;101193.72;5079405;28;20048;-67
2023/08/15 04:15:47;;;;;;;12.32;5.53;;;;;;;19.50;100.00;101206.38;5088665;28;20519;-67
2023/08/15 04:18:14;;;;;;;13.18;4.93;;;;;;;19.47;100.00;101203.28;5084068;28;20048;-67
2023/08/15 04:20:42;;;;;;;17.35;5.65;;;;;;;19.39;100.00;101198.94;5071751;28;20108;-67
2023/08/15 04:23:09;;;;;;;12.65;4.90;;;;;;;19.35;100.00;101195.03;5093028;28;20246;-67
2023/08/15 04:25:37;;;;;;;10.20;4.63;;;;;;;19.31;100.00;101199.09;5078833;28;20489;-67
2023/08/15 04:28:04;;;;;;;;;;;;;;;19.28;100.00;101197.63;5090431;28;20063;-67
2023/08/15 04:30:31;;;;;;;13.27;5.00;;;;;;;19.32;100.00;101200.72;5076595;28;20564;-67
2023/08/15 04:32:58;;;;;;;10.88;5.00;;;;;;;19.26;100.00;101205.00;5079160;28;20058;-67
2023/08/15 04:35:26;;;;;;;10.10;4.38;;;;;;;19.21;100.00;101210.09;5103611;28;20051;-67
2023/08/15 04:37:53;;;;;;;11.35;4.28;;;;;;;19.10;100.00;101205.28;5096508;28;20532;-67
2023/08/15 04:40:34;;;;;;;12.05;4.40;;;;;;;19.11;100.00;101209.59;5087339;28;20077;-67
2023/08/15 04:43:01;;;;;;;10.85;3.95;;;;;;;19.09;100.00;101216.94;5093429;27;20572;-67
2023/08/15 04:45:28;;;;;;;9.20;3.67;;;;;;;19.12;100.00;101224.53;5083638;28;20056;-67
2023/08/15 04:47:54;;;;;;;9.90;4.43;;;;;;;19.03;100.00;101223.03;5073442;28;20123;-67
2023/08/15 04:50:21;;;;;;;9.93;4.22;;;;;;;18.97;100.00;101229.94;5098549;28;20048;-68
2023/08/15 04:52:48;;;;;;;11.57;4.50;;;;;;;18.99;100.00;101235.88;5097517;28;20125;-67
2023/08/15 04:55:14;;;;;;;12.80;4.07;;;;;;;18.94;100.00;101244.44;5079187;28;20052;-67
2023/08/15 04:57:41;;;;;;;13.32;4.32;;;;;;;18.93;100.00;101252.59;5088411;28;20432;-67
2023/08/15 05:00:11;;;;;;;10.98;4.25;;;;;;;18.92;100.00;101248.31;5073955;28;20063;-67
2023/08/15 05:02:39;;;;;;;16.35;4.72;;;;;;;18.92;100.00;101251.78;5073405;28;20075;-68
2023/08/15 05:05:09;;;;;;;9.57;4.30;;;;;;;18.92;100.00;101253.63;5067342;28;20113;-67
2023/08/15 05:07:36;;;;;;;10.48;3.40;;;;;;;18.95;100.00;101258.53;5068950;28;20508;-67
2023/08/15 05:10:03;;;;;;;8.25;4.00;;;;;;;18.95;100.00;101264.69;5071743;28;20432;-67
2023/08/15 05:12:30;;;;;;;10.68;4.60;;;;;;;18.96;100.00;101271.66;5072547;28;20056;-67
2023/08/15 05:14:56;;;;;;;12.18;3.70;;;;;;;18.98;100.00;101276.78;5070114;28;20052;-67
2023/08/15 05:17:23;;;;;;;10.48;4.13;;;;;;;18.95;100.00;101282.47;5067684;28;20190;-67
2023/08/15 05:19:49;;;;;;;14.55;4.38;;;;;;;18.98;100.00;101286.59;5079861;28;20079;-67
2023/08/15 05:22:16;;;;;;;12.43;4.47;;;;;;;18.90;100.00;101290.19;5070888;28;20820;-67
2023/08/15 05:24:42;;;;;;;14.75;5.45;;;;;;;18.89;100.00;101289.34;5074336;28;20052;-67
2023/08/15 05:27:11;;;;;;;13.23;4.22;;;;;;;18.90;100.00;101290.19;5079402;28;20531;-67
2023/08/15 05:29:40;;;;;;;11.48;4.25;;;;;;;18.91;100.00;101291.84;5066861;28;20139;-67
2023/08/15 05:32:06;;;;;;;13.85;4.20;;;;;;;18.91;100.00;101300.63;5082050;28;20052;-67
2023/08/15 05:34:33;;;;;;;14.98;5.55;;;;;;;18.86;100.00;101305.69;5082712;28;20096;-68
2023/08/15 05:36:59;;;;;;;13.40;4.35;;;;;;;18.79;100.00;101304.78;5083004;28;20521;-67
2023/08/15 05:39:25;;;;;;;10.18;4.80;;;;;;;18.75;100.00;101316.78;5073600;28;20141;-67
2023/08/15 05:41:52;;;;;;;14.60;4.10;;;;;;;18.71;100.00;101318.19;5065070;28;20080;-67
2023/08/15 05:44:18;;;;;;;8.40;4.45;;;;;;;18.63;100.00;101323.63;5076825;28;20127;-67
2023/08/15 05:46:45;;;;;;;12.95;5.03;;;;;;;18.52;100.00;101323.09;5076313;28;20478;-67
2023/08/15 05:49:11;;;;;;;12.88;4.80;;;;;;;18.58;100.00;101337.44;5080953;28;20048;-67
2023/08/15 05:51:38;;;;;;;10.82;4.53;;;;;;;18.59;100.00;101331.13;5069881;28;20097;-67
2023/08/15 05:54:04;;;;;;;9.45;4.20;;;;;;;18.65;100.00;101345.50;5072418;28;20048;-68
2023/08/15 05:56:31;;;;;;;13.27;5.07;;;;;;;18.66;100.00;101340.00;5073482;28;20051;-67
2023/08/15 05:58:57;;;;;;;10.38;4.63;;;;;;;18.65;100.00;101334.88;5072694;28;20115;-67
2023/08/15 06:01:24;;;;;;;12.30;4.75;;;;;;;18.69;100.00;101334.31;5077136;28;20048;-67
2023/08/15 06:03:51;;;;;;;9.75;4.63;;;;;;;18.71;100.00;101331.47;5063300;28;20056;-67
2023/08/15 06:06:19;;;;;;;15.95;4.90;;;;;;;18.73;100.00;101345.38;5075624;28;20043;-67
2023/08/15 06:08:45;;;;;;;11.98;5.25;;;;;;;18.72;100.00;101341.09;5060176;28;20053;-67
2023/08/15 06:11:15;;;;;;;8.02;4.30;;;;;;;18.71;100.00;101336.78;5069736;28;20048;-67
2023/08/15 06:13:41;;;;;;;14.30;5.05;;;;;;;18.75;100.00;101340.72;5070308;28;20460;-67
2023/08/15 06:16:08;;;;;;;11.13;5.07;;;;;;;18.76;100.00;101345.03;5070242;28;20052;-67
2023/08/15 06:18:38;;;;;;;11.75;4.57;;;;;;;18.82;100.00;101349.63;5074664;28;20044;-67
2023/08/15 06:21:04;;;;;;;10.45;3.95;;;;;;;18.89;100.00;101347.84;5056319;28;20459;-67
2023/08/15 06:23:31;;;;;;;13.50;4.55;;;;;;;18.90;100.00;101354.00;5071777;28;20140;-67
2023/08/15 06:25:57;;;;;;;11.77;4.30;;;;;;;18.94;100.00;101352.59;5065881;28;20130;-71
2023/08/15 06:28:24;;;;;;;12.18;4.15;;;;;;;18.96;100.00;101350.56;5068398;28;20121;-68
2023/08/15 06:30:50;;;;;;;12.30;4.68;;;;;;;18.98;100.00;101358.38;5060524;28;20106;-68
2023/08/15 06:33:17;;;;;;;13.10;4.65;;;;;;;19.01;100.00;101368.63;5076254;28;20055;-68
2023/08/15 06:35:43;;;;;;;11.90;3.90;;;;;;;19.06;100.00;101375.00;5066939;28;20337;-68
2023/08/15 06:38:10;;;;;;;11.13;4.15;;;;;;;19.11;100.00;101379.75;5069108;28;20052;-68
2023/08/15 06:40:36;;;;;;;10.55;3.85;;;;;;;19.10;100.00;101378.94;5069249;28;20063;-67
2023/08/15 06:43:03;;;;;;;15.73;4.72;;;;;;;19.09;100.00;101381.78;5071479;28;20203;-67
2023/08/15 06:45:29;;;;;;;10.52;4.82;;;;;;;19.20;100.00;101383.13;5076343;28;20128;-67
2023/08/15 06:47:56;;;;;;;12.95;4.43;;;;;;;19.28;100.00;101385.66;5068453;28;20047;-69
2023/08/15 06:50:23;;;;;;;12.27;4.22;;;;;;;19.39;100.00;101390.47;5076053;28;20083;-67
2023/08/15 06:52:49;;;;;;;14.63;4.35;;;;;;;19.41;100.00;101383.13;5068772;28;20106;-68
2023/08/15 06:55:16;;;;;;;13.60;4.65;;;;;;;19.40;100.00;101386.78;5062693;28;20135;-68
2023/08/15 06:57:42;;;;;;;12.90;4.38;;;;;;;19.46;100.00;101390.53;5084627;28;20052;-68
2023/08/15 07:00:11;;;;;;;13.68;5.13;;;;;;;19.47;100.00;101392.19;5076960;28;20133;-68
2023/08/15 07:02:39;;;;;;;8.93;3.95;;;;;;;19.55;100.00;101389.38;5070258;28;20134;-68
2023/08/15 07:05:07;;;;;;;15.02;5.70;;;;;;;19.53;100.00;101389.56;5060785;28;20052;-68
2023/08/15 07:07:33;;;;;;;12.10;4.35;;;;;;;19.49;100.00;101393.63;5068508;28;20078;-69
2023/08/15 07:10:00;;;;;;;13.35;5.10;;;;;;;19.52;100.00;101393.25;5070270;28;20193;-68
2023/08/15 07:12:26;;;;;;;13.68;4.63;;;;;;;19.59;100.00;101392.47;5071968;28;20059;-68
2023/08/15 07:14:53;;;;;;;16.75;5.43;;;;;;;19.66;100.00;101401.31;5069819;28;20052;-68
2023/08/15 07:17:19;;;;;;;15.18;5.30;;;;;;;19.70;100.00;101397.28;5065279;28;20100;-69
2023/08/15 07:19:46;;;;;;;13.27;5.38;;;;;;;19.73;100.00;101395.06;5078536;28;20512;-67
2023/08/15 07:22:12;;;;;;;12.32;4.82;;;;;;;19.81;100.00;101393.28;5078061;28;20158;-67
2023/08/15 07:24:39;;;;;;;17.08;5.50;;;;;;;19.84;100.00;101390.25;5081668;28;20514;-68
2023/08/15 07:27:05;;;;;;;13.65;5.45;;;;;;;19.90;100.00;101392.16;5083806;28;20087;-69
2023/08/15 07:29:31;;;;;;;14.98;4.97;;;;;;;20.05;100.00;101392.03;5069041;28;20094;-69
2023/08/15 07:31:58;;;;;;;13.20;5.32;;;;;;;20.13;100.00;101394.53;5075705;28;20054;-68
2023/08/15 07:34:25;;;;;;;15.80;5.55;;;;;;;20.13;100.00;101398.03;5076336;28;20523;-68
2023/08/15 07:36:51;;;;;;;12.10;5.90;;;;;;;20.02;100.00;101405.75;5084518;28;20044;-70
2023/08/15 07:39:18;;;;;;;13.05;5.10;;;;;;;20.05;100.00;101400.84;5077924;28;20101;-69
2023/08/15 07:41:44;;;;;;;13.63;5.78;;;;;;;20.10;100.00;101406.41;5076701;28;20048;-67
2023/08/15 07:44:11;;;;;;;14.57;5.47;;;;;;;20.17;100.00;101406.47;5069343;28;20071;-67
2023/08/15 07:46:38;;;;;;;12.98;5.22;;;;;;;20.27;100.00;101403.44;5057424;28;20419;-68
2023/08/15 07:49:05;;;;;;;12.55;5.13;;;;;;;20.34;100.00;101409.59;5073842;28;20052;-68
2023/08/15 07:51:31;;;;;;;13.30;4.75;;;;;;;20.47;100.00;101403.53;5063349;28;20497;-68
2023/08/15 07:53:58;;;;;;;11.73;4.53;;;;;;;20.52;100.00;101401.09;5071777;28;20040;-68
2023/08/15 07:56:24;;;;;;;12.45;4.80;;;;;;;20.61;100.00;101410.59;5075562;28;20048;-67
2023/08/15 07:58:51;;;;;;;10.65;4.88;;;;;;;20.57;100.00;101414.66;5060000;28;20049;-69
2023/08/15 08:01:17;;;;;;;12.73;4.75;;;;;;;20.64;100.00;101417.34;5062280;28;20049;-69
2023/08/15 08:03:44;;;;;;;14.02;5.18;;;;;;;20.76;100.00;101421.13;5060001;28;20048;-68
2023/08/15 08:06:11;;;;;;;13.65;4.97;;;;;;;20.82;100.00;101424.84;5077108;28;20094;-68
2023/08/15 08:08:57;;;;;;;11.90;4.95;;;;;;;20.96;100.00;101420.38;5059004;28;20059;-68
2023/08/15 08:11:24;;;;;;;15.30;4.88;;;;;;;20.91;100.00;101424.47;5064847;28;20086;-68
2023/08/15 08:13:50;;;;;;;11.05;4.65;;;;;;;20.99;100.00;101433.28;5052452;28;20417;-67
2023/08/15 08:16:17;;;;;;;12.63;4.88;;;;;;;21.05;100.00;101436.00;5065054;28;20130;-68
2023/08/15 08:18:44;;;;;;;12.90;4.10;;;;;;;21.20;100.00;101443.00;5073408;28;20156;-68
2023/08/15 08:21:11;;;;;;;10.77;3.97;;;;;;;21.43;100.00;101443.47;5062121;28;20052;-69
2023/08/15 08:23:38;;;;;;;11.60;4.37;;;;;;;21.55;100.00;101441.03;5076254;28;20059;-68
2023/08/15 08:26:04;;;;;;;12.80;4.65;;;;;;;21.59;100.00;101446.78;5061288;28;20056;-69
2023/08/15 08:28:31;;;;;;;13.15;4.57;;;;;;;21.73;100.00;101445.75;5066163;28;20052;-68
2023/08/15 08:30:58;;;;;;;12.57;4.57;;;;;;;21.67;100.00;101451.91;5068195;28;20040;-69
2023/08/15 08:33:25;;;;;;;14.23;4.27;;;;;;;21.76;100.00;101441.84;5065536;28;20767;-68
2023/08/15 08:35:52;;;;;;;12.05;3.85;;;;;;;21.76;100.00;101449.84;5092247;28;20054;-69
2023/08/15 08:38:18;;;;;;;7.82;3.72;;;;;;;21.89;100.00;101449.88;5076123;28;20067;-67
2023/08/15 08:40:47;;;;;;;9.50;3.33;;;;;;;21.92;100.00;101454.81;5072747;28;20074;-67
2023/08/15 08:43:15;;;;;;;14.07;3.53;;;;;;;21.91;100.00;101450.47;5076385;28;20548;-69
2023/08/15 08:45:47;;;;;;;13.48;3.45;;;;;;;22.04;100.00;101452.31;5079303;28;20040;-70
2023/08/15 08:48:16;;;;;;;9.00;3.55;;;;;;;22.10;100.00;101449.63;5069494;28;20047;-67
2023/08/15 08:50:43;;;;;;;;;;;;;;;22.09;100.00;101455.19;5091587;28;20056;-69
2023/08/15 08:53:09;;;;;;;13.83;3.47;;;;;;;22.23;100.00;101448.81;5070745;28;19970;-70
2023/08/15 08:55:36;;;;;;;12.07;4.25;;;;;;;22.34;100.00;101447.38;5061790;28;20588;-68
2023/08/15 08:58:03;;;;;;;9.05;3.88;;;;;;;22.56;100.00;101444.44;5087296;28;20515;-68
2023/08/15 09:00:33;;;;;;;7.75;3.78;;;;;;;22.67;100.00;101451.78;5068773;28;20044;-68
2023/08/15 09:03:00;;;;;;;11.50;3.30;;;;;;;22.63;100.00;101458.59;5076650;28;20045;-68
2023/08/15 09:05:27;;;;;;;8.32;3.20;;;;;;;22.64;100.00;101457.56;5086582;28;20051;-66
2023/08/15 09:07:54;;;;;;;7.47;2.90;;;;;;;22.42;100.00;101465.03;5068062;28;20063;-68
2023/08/15 09:10:21;;;;;;;8.23;2.72;;;;;;;22.42;100.00;101460.50;5068659;28;20054;-69
2023/08/15 09:12:48;;;;;;;8.75;2.88;;;;;;;22.27;100.00;101470.63;5077289;28;20086;-68
2023/08/15 09:15:15;;;;;;;7.25;2.63;;;;;;;22.03;100.00;101472.03;5070274;28;20297;-68
2023/08/15 09:17:43;;;;;;;8.93;2.67;;;;;;;21.89;100.00;101472.06;5071418;27;20044;-69
2023/08/15 09:20:14;;;;;;;7.18;2.30;;;;;;;22.08;100.00;101474.94;5075009;28;20147;-68
2023/08/15 09:22:45;;;;;;;6.70;2.85;;;;;;;22.16;100.00;101477.38;5073988;28;20051;-69
2023/08/15 09:25:14;;;;;;;8.55;2.72;;;;;;;22.29;100.00;101473.91;5073301;28;20046;-69
2023/08/15 09:27:42;;;;;;;7.00;2.78;;;;;;;22.36;100.00;101480.03;5088486;28;20469;-69
2023/08/15 09:30:13;;;;;;;10.60;3.20;;;;;;;22.34;100.00;101481.28;5066366;28;20049;-70
2023/08/15 09:32:42;;;;;;;6.55;2.67;;;;;;;;;;5075109;28;20059;-70
2023/08/15 09:35:13;;;;;;;14.02;3.03;;;;;;;22.43;100.00;101488.06;5073889;28;20048;-68
2023/08/15 09:37:41;;;;;;;9.57;3.15;;;;;;;22.50;100.00;101484.34;5071830;28;20048;-69
2023/08/15 09:40:10;;;;;;;;;;;;;;;22.65;100.00;101494.78;5078856;28;20518;-70
2023/08/15 09:42:36;;;;;;;8.82;3.13;;;;;;;22.70;100.00;101489.63;5068230;28;19928;-68
2023/08/15 09:45:04;;;;;;;10.32;2.70;;;;;;;22.92;100.00;101491.22;5071565;28;20052;-68
2023/08/15 09:47:31;;;;;;;7.95;2.78;;;;;;;22.99;100.00;101491.97;5072647;28;20044;-68
2023/08/15 09:49:59;;;;;;;10.32;3.08;;;;;;;22.97;100.00;101497.53;5076990;28;20044;-70
2023/08/15 09:52:28;;;;;;;8.77;3.20;;;;;;;22.96;100.00;101503.94;5066989;28;20193;-70
2023/08/15 09:54:54;;;;;;;8.57;3.28;;;;;;;23.00;100.00;101496.31;5076457;28;20106;-69
2023/08/15 09:57:21;;;;;;;7.78;3.45;;;;;;;23.18;100.00;101507.16;5073627;28;20182;-68
2023/08/15 09:59:48;;;;;;;7.63;2.85;;;;;;;23.37;100.00;101502.75;5070689;28;20044;-67
2023/08/15 10:02:22;;;;;;;8.25;3.30;;;;;;;23.62;100.00;101504.63;5066174;28;20040;-69
2023/08/15 10:05:03;;;;;;;9.80;3.42;;;;;;;23.87;100.00;101510.03;5069576;28;20044;-69
2023/08/15 10:07:32;;;;;;;9.15;3.95;;;;;;;23.54;95.13;101513.78;5077443;28;20083;-67
2023/08/15 10:10:03;;;;;;;9.15;3.40;;;;;;;23.69;97.21;101521.47;5065116;28;20048;-69
2023/08/15 10:12:34;;;;;;;11.60;3.72;;;;;;;23.67;98.73;101519.00;5067724;28;20145;-68
2023/08/15 10:15:02;;;;;;;8.93;4.32;;;;;;;23.46;100.00;101527.38;5065942;28;20047;-69
2023/08/15 10:17:29;;;;;;;12.23;3.97;;;;;;;23.58;100.00;101530.19;5073225;28;20044;-69
2023/08/15 10:20:00;;;;;;;12.13;3.85;;;;;;;23.53;100.00;101530.84;5078317;28;20610;-69
2023/08/15 10:22:32;;;;;;;7.95;3.55;;;;;;;23.59;100.00;101538.03;5073864;28;20472;-69
2023/08/15 10:25:17;;;;;;;11.48;3.22;;;;;;;23.64;100.00;101540.88;5079646;28;20054;-68
2023/08/15 10:27:47;;;;;;;10.10;4.28;;;;;;;23.67;100.00;101535.09;5076818;28;20093;-69
2023/08/15 10:30:30;;;;;;;9.38;4.10;;;;;;;23.79;100.00;101540.59;5073452;28;20056;-70
2023/08/15 10:33:11;;;;;;;10.35;4.13;;;;;;;23.90;100.00;101544.44;5067302;28;20132;-68
2023/08/15 10:35:42;;;;;;;10.00;4.40;;;;;;;23.82;97.88;101544.72;5085511;28;20055;-70
2023/08/15 10:38:14;;;;;;;14.52;4.88;;;;;;;23.58;98.30;101552.47;5067567;28;20671;-69
2023/08/15 10:40:42;;;;;;;10.18;4.40;;;;;;;23.42;100.00;101547.59;5078755;28;20409;-69
2023/08/15 10:43:11;;;;;;;8.63;3.67;;;;;;;23.64;99.99;101548.91;5072462;28;20064;-68
2023/08/15 10:45:46;;;;;;;10.05;3.78;;;;;;;23.86;100.00;101540.56;5062401;28;20361;-69
2023/08/15 10:48:13;;;;;;;10.45;3.65;;;;;;;24.15;98.28;101543.63;5078787;28;20044;-69
2023/08/15 10:50:45;;;;;;;11.13;4.28;;;;;;;24.36;92.90;101540.53;5083830;28;20052;-64
2023/08/15 10:53:12;;;;;;;9.50;4.10;;;;;;;24.55;93.41;101544.09;5074504;28;20044;-65
2023/08/15 10:55:39;;;;;;;8.85;3.33;;;;;;;24.71;91.99;101541.88;5074679;28;20048;-68
2023/08/15 10:58:09;;;;;;;8.53;3.57;;;;;;;24.65;87.33;101548.97;5079768;28;20087;-67
2023/08/15 11:00:36;;;;;;;12.05;4.40;;;;;;;24.74;87.38;101539.59;5070933;28;20083;-68
2023/08/15 11:03:03;;;;;;;10.45;3.30;;;;;;;24.98;91.54;101545.91;5074668;28;20049;-69
2023/08/15 11:05:30;;;;;;;12.07;3.80;;;;;;;25.15;88.53;101550.63;5066745;28;20045;-67
2023/08/15 11:08:29;;;;;;;10.00;3.90;;;;;;;24.81;86.35;101550.22;5059948;28;20045;-69
2023/08/15 11:10:56;;;;;;;9.88;4.10;;;;;;;24.95;86.47;101546.38;5020343;28;20497;-68
2023/08/15 11:13:22;;;;;;;9.63;4.63;;;;;;;24.89;84.96;101533.81;5055160;28;20075;-69
2023/08/15 11:15:49;;;;;;;10.23;3.80;;;;;;;25.17;87.33;101545.88;5076967;28;20097;-68
2023/08/15 11:18:21;;;;;;;9.17;4.77;;;;;;;24.85;83.88;101541.53;5064583;28;20052;-69